DLH8LJ EDDS-EDDF
Flight info
| Callsign | DLH8LJ |
|---|---|
| Flight time | 0h 25m |
| Altitude | 24000 |
| Route | ETASA2H ETASA T163 SPESA SPESA5C |
| Aircraft | A321/M-SDE2E3FGIJ1LORWXY/HB1 |
Departure
| Time | 2026-04-15 10:09 |
|---|---|
| Airport | Stuttgart Airport (EDDS) |
Arrival
| Time | 2026-04-15 10:34 |
|---|---|
| Airport | Frankfurt Main Airport (EDDF) |
| Time | Latitude | Longitude | Altitude | Speed | Heading |
|---|---|---|---|---|---|
| 2026-04-15 09:17 | 48.68893 | 9.19430 | 1316 ft | 0 kts | 344° |
| 2026-04-15 10:02 | 48.68885 | 9.19433 | 1315 ft | 3 kts | 344° |
| 2026-04-15 10:02 | 48.68865 | 9.19442 | 1314 ft | 3 kts | 344° |
| 2026-04-15 10:02 | 48.68847 | 9.19450 | 1313 ft | 3 kts | 350° |
| 2026-04-15 10:03 | 48.68829 | 9.19450 | 1313 ft | 3 kts | 30° |
| 2026-04-15 10:03 | 48.68817 | 9.19432 | 1313 ft | 3 kts | 69° |
| 2026-04-15 10:03 | 48.68812 | 9.19413 | 1313 ft | 1 kts | 74° |
| 2026-04-15 10:03 | 48.68812 | 9.19412 | 1313 ft | 0 kts | 74° |
| 2026-04-15 10:07 | 48.68813 | 9.19417 | 1313 ft | 2 kts | 74° |
| 2026-04-15 10:07 | 48.68821 | 9.19459 | 1312 ft | 7 kts | 74° |
| 2026-04-15 10:07 | 48.68838 | 9.19548 | 1311 ft | 11 kts | 74° |
| 2026-04-15 10:07 | 48.68863 | 9.19683 | 1308 ft | 16 kts | 74° |
| 2026-04-15 10:08 | 48.68879 | 9.19861 | 1302 ft | 15 kts | 124° |
| 2026-04-15 10:08 | 48.68757 | 9.19951 | 1293 ft | 24 kts | 166° |
| 2026-04-15 10:08 | 48.68626 | 9.20014 | 1288 ft | 15 kts | 162° |
| 2026-04-15 10:08 | 48.68591 | 9.20105 | 1283 ft | 14 kts | 83° |
| 2026-04-15 10:09 | 48.68645 | 9.20391 | 1277 ft | 58 kts | 74° |
| 2026-04-15 10:09 | 48.68833 | 9.21390 | 1265 ft | 137 kts | 74° |
| 2026-04-15 10:09 | 48.69133 | 9.22969 | 1719 ft | 158 kts | 75° |
| 2026-04-15 10:09 | 48.69422 | 9.24581 | 2615 ft | 159 kts | 74° |
| 2026-04-15 10:10 | 48.69739 | 9.26271 | 3155 ft | 180 kts | 75° |
| 2026-04-15 10:10 | 48.70075 | 9.28226 | 3560 ft | 202 kts | 76° |
| 2026-04-15 10:10 | 48.70459 | 9.30413 | 4013 ft | 227 kts | 75° |
| 2026-04-15 10:10 | 48.70928 | 9.32826 | 4521 ft | 250 kts | 74° |
| 2026-04-15 10:11 | 48.71441 | 9.35400 | 5330 ft | 259 kts | 74° |
| 2026-04-15 10:11 | 48.72104 | 9.37973 | 6093 ft | 273 kts | 60° |
| 2026-04-15 10:11 | 48.73507 | 9.40073 | 6512 ft | 302 kts | 31° |
| 2026-04-15 10:11 | 48.75609 | 9.40932 | 6853 ft | 331 kts | 1° |
| 2026-04-15 10:12 | 48.77930 | 9.40151 | 7126 ft | 358 kts | 338° |
| 2026-04-15 10:12 | 48.80186 | 9.38291 | 7330 ft | 381 kts | 327° |
| 2026-04-15 10:12 | 48.82366 | 9.35869 | 7778 ft | 393 kts | 322° |
| 2026-04-15 10:12 | 48.83781 | 9.34123 | 8221 ft | 397 kts | 321° |
| 2026-04-15 10:13 | 48.85914 | 9.31436 | 8945 ft | 400 kts | 321° |
| 2026-04-15 10:13 | 48.88088 | 9.28776 | 9683 ft | 403 kts | 322° |
| 2026-04-15 10:13 | 48.90318 | 9.26180 | 10400 ft | 405 kts | 323° |
| 2026-04-15 10:13 | 48.92602 | 9.23648 | 11028 ft | 408 kts | 324° |
| 2026-04-15 10:14 | 48.94929 | 9.21150 | 11655 ft | 411 kts | 325° |
| 2026-04-15 10:14 | 48.97285 | 9.18654 | 12310 ft | 414 kts | 325° |
| 2026-04-15 10:14 | 48.99654 | 9.16142 | 12989 ft | 416 kts | 325° |
| 2026-04-15 10:14 | 49.02035 | 9.13605 | 13686 ft | 420 kts | 325° |
| 2026-04-15 10:15 | 49.04435 | 9.11026 | 14319 ft | 423 kts | 325° |
| 2026-04-15 10:15 | 49.06843 | 9.08416 | 14874 ft | 427 kts | 325° |
| 2026-04-15 10:15 | 49.09268 | 9.05773 | 15391 ft | 430 kts | 324° |
| 2026-04-15 10:15 | 49.11710 | 9.03105 | 15931 ft | 433 kts | 325° |
| 2026-04-15 10:16 | 49.14172 | 9.00412 | 16459 ft | 437 kts | 325° |
| 2026-04-15 10:16 | 49.16656 | 8.97695 | 16962 ft | 440 kts | 325° |
| 2026-04-15 10:16 | 49.19150 | 8.94968 | 17493 ft | 443 kts | 325° |
| 2026-04-15 10:16 | 49.21663 | 8.92217 | 17962 ft | 447 kts | 324° |
| 2026-04-15 10:17 | 49.24202 | 8.89432 | 18503 ft | 451 kts | 325° |
| 2026-04-15 10:17 | 49.26760 | 8.86619 | 19012 ft | 454 kts | 324° |
| 2026-04-15 10:17 | 49.29329 | 8.83788 | 19475 ft | 456 kts | 324° |
| 2026-04-15 10:17 | 49.31918 | 8.80937 | 19934 ft | 459 kts | 324° |
| 2026-04-15 10:18 | 49.34519 | 8.78074 | 20406 ft | 462 kts | 324° |
| 2026-04-15 10:18 | 49.37137 | 8.75191 | 20863 ft | 464 kts | 324° |
| 2026-04-15 10:18 | 49.39764 | 8.72298 | 21294 ft | 466 kts | 324° |
| 2026-04-15 10:18 | 49.42406 | 8.69379 | 21704 ft | 469 kts | 324° |
| 2026-04-15 10:19 | 49.45062 | 8.66437 | 22082 ft | 472 kts | 324° |
| 2026-04-15 10:19 | 49.47727 | 8.63475 | 22427 ft | 474 kts | 324° |
| 2026-04-15 10:19 | 49.50403 | 8.60492 | 22767 ft | 476 kts | 324° |
| 2026-04-15 10:19 | 49.53093 | 8.57488 | 23051 ft | 477 kts | 324° |
| 2026-04-15 10:20 | 49.55745 | 8.54527 | 22269 ft | 464 kts | 324° |
| 2026-04-15 10:20 | 49.58333 | 8.51638 | 20769 ft | 455 kts | 324° |
| 2026-04-15 10:20 | 49.60874 | 8.48798 | 19380 ft | 447 kts | 324° |
| 2026-04-15 10:20 | 49.63351 | 8.46025 | 17773 ft | 433 kts | 324° |
| 2026-04-15 10:21 | 49.65730 | 8.43360 | 16226 ft | 413 kts | 324° |
| 2026-04-15 10:21 | 49.68014 | 8.40800 | 14748 ft | 399 kts | 323° |
| 2026-04-15 10:21 | 49.70193 | 8.38360 | 13269 ft | 386 kts | 323° |
| 2026-04-15 10:21 | 49.72337 | 8.35952 | 11756 ft | 375 kts | 323° |
| 2026-04-15 10:22 | 49.74445 | 8.33575 | 10290 ft | 366 kts | 323° |
| 2026-04-15 10:22 | 49.76435 | 8.31329 | 9348 ft | 346 kts | 323° |
| 2026-04-15 10:22 | 49.78283 | 8.29210 | 8917 ft | 315 kts | 319° |
| 2026-04-15 10:22 | 49.79838 | 8.26931 | 8724 ft | 296 kts | 311° |
| 2026-04-15 10:23 | 49.81067 | 8.24509 | 8532 ft | 285 kts | 302° |
| 2026-04-15 10:23 | 49.82039 | 8.21858 | 8162 ft | 281 kts | 293° |
| 2026-04-15 10:23 | 49.82726 | 8.19039 | 7764 ft | 279 kts | 285° |
| 2026-04-15 10:23 | 49.83126 | 8.16112 | 7382 ft | 277 kts | 275° |
| 2026-04-15 10:24 | 49.83242 | 8.13178 | 7105 ft | 270 kts | 268° |
| 2026-04-15 10:24 | 49.83091 | 8.10297 | 6759 ft | 267 kts | 259° |
| 2026-04-15 10:24 | 49.82675 | 8.07501 | 6375 ft | 266 kts | 251° |
| 2026-04-15 10:24 | 49.82042 | 8.04825 | 5964 ft | 265 kts | 248° |
| 2026-04-15 10:25 | 49.81705 | 8.02048 | 5648 ft | 263 kts | 271° |
| 2026-04-15 10:25 | 49.82116 | 7.99320 | 5288 ft | 262 kts | 296° |
| 2026-04-15 10:25 | 49.83225 | 7.97127 | 4981 ft | 260 kts | 322° |
| 2026-04-15 10:25 | 49.84808 | 7.95852 | 4708 ft | 254 kts | 347° |
| 2026-04-15 10:26 | 49.86529 | 7.95689 | 4450 ft | 245 kts | 12° |
| 2026-04-15 10:26 | 49.88099 | 7.96565 | 4245 ft | 237 kts | 34° |
| 2026-04-15 10:26 | 49.89310 | 7.98267 | 4104 ft | 234 kts | 56° |
| 2026-04-15 10:26 | 49.90025 | 8.00513 | 3998 ft | 233 kts | 72° |
| 2026-04-15 10:27 | 49.90547 | 8.02890 | 3993 ft | 230 kts | 72° |
| 2026-04-15 10:27 | 49.91072 | 8.05196 | 4006 ft | 226 kts | 71° |
| 2026-04-15 10:27 | 49.91618 | 8.07463 | 4001 ft | 225 kts | 70° |
| 2026-04-15 10:27 | 49.92172 | 8.09727 | 3994 ft | 225 kts | 70° |
| 2026-04-15 10:28 | 49.92727 | 8.11993 | 4005 ft | 225 kts | 70° |
| 2026-04-15 10:28 | 49.93281 | 8.14264 | 4008 ft | 225 kts | 71° |
| 2026-04-15 10:28 | 49.93834 | 8.16530 | 4006 ft | 225 kts | 70° |
| 2026-04-15 10:28 | 49.94378 | 8.18762 | 4004 ft | 215 kts | 70° |
| 2026-04-15 10:29 | 49.94901 | 8.20907 | 4006 ft | 211 kts | 70° |
| 2026-04-15 10:29 | 49.95406 | 8.22984 | 4014 ft | 199 kts | 70° |
| 2026-04-15 10:29 | 49.95887 | 8.24964 | 4012 ft | 195 kts | 71° |
| 2026-04-15 10:29 | 49.96364 | 8.26929 | 3907 ft | 194 kts | 70° |
| 2026-04-15 10:30 | 49.96837 | 8.28879 | 3670 ft | 192 kts | 70° |
| 2026-04-15 10:30 | 49.97308 | 8.30824 | 3446 ft | 193 kts | 70° |
| 2026-04-15 10:30 | 49.97774 | 8.32747 | 3177 ft | 191 kts | 71° |
| 2026-04-15 10:30 | 49.98243 | 8.34685 | 2922 ft | 191 kts | 70° |
| 2026-04-15 10:31 | 49.98709 | 8.36613 | 2653 ft | 191 kts | 70° |
| 2026-04-15 10:31 | 49.99178 | 8.38556 | 2402 ft | 193 kts | 70° |
| 2026-04-15 10:31 | 49.99647 | 8.40497 | 2146 ft | 189 kts | 70° |
| 2026-04-15 10:31 | 50.00093 | 8.42323 | 1864 ft | 174 kts | 69° |
| 2026-04-15 10:32 | 50.00509 | 8.44001 | 1678 ft | 156 kts | 70° |
| 2026-04-15 10:32 | 50.00858 | 8.45504 | 1502 ft | 142 kts | 71° |
| 2026-04-15 10:32 | 50.01184 | 8.46920 | 1273 ft | 138 kts | 71° |
| 2026-04-15 10:32 | 50.01526 | 8.48314 | 1037 ft | 137 kts | 70° |
| 2026-04-15 10:33 | 50.01861 | 8.49684 | 860 ft | 136 kts | 68° |
| 2026-04-15 10:33 | 50.02197 | 8.51078 | 691 ft | 136 kts | 70° |
| 2026-04-15 10:33 | 50.02522 | 8.52461 | 518 ft | 137 kts | 69° |
| 2026-04-15 10:33 | 50.02860 | 8.53856 | 360 ft | 137 kts | 70° |
| 2026-04-15 10:34 | 50.03150 | 8.55069 | 348 ft | 99 kts | 70° |
| 2026-04-15 10:34 | 50.03368 | 8.55974 | 354 ft | 77 kts | 70° |
| 2026-04-15 10:34 | 50.03529 | 8.56662 | 360 ft | 53 kts | 69° |
| 2026-04-15 10:34 | 50.03656 | 8.57011 | 354 ft | 33 kts | 45° |
| 2026-04-15 10:35 | 50.03811 | 8.57234 | 360 ft | 24 kts | 34° |
| 2026-04-15 10:35 | 50.03942 | 8.57400 | 364 ft | 24 kts | 49° |
| 2026-04-15 10:35 | 50.04012 | 8.57638 | 371 ft | 25 kts | 70° |
| 2026-04-15 10:35 | 50.04075 | 8.57909 | 369 ft | 28 kts | 70° |
| 2026-04-15 10:36 | 50.04142 | 8.58128 | 368 ft | 20 kts | 42° |
| 2026-04-15 10:36 | 50.04238 | 8.58205 | 368 ft | 6 kts | 12° |
| 2026-04-15 10:36 | 50.04243 | 8.58207 | 372 ft | 3 kts | 11° |
| 2026-04-15 10:36 | 50.04286 | 8.58203 | 369 ft | 11 kts | 346° |
| 2026-04-15 10:37 | 50.04385 | 8.58148 | 371 ft | 20 kts | 339° |
| 2026-04-15 10:37 | 50.04528 | 8.58053 | 370 ft | 8 kts | 314° |
| 2026-04-15 10:37 | 50.04526 | 8.57950 | 367 ft | 12 kts | 249° |
| 2026-04-15 10:37 | 50.04490 | 8.57803 | 365 ft | 17 kts | 249° |
| 2026-04-15 10:38 | 50.04445 | 8.57611 | 366 ft | 21 kts | 248° |
| 2026-04-15 10:38 | 50.04389 | 8.57366 | 363 ft | 27 kts | 251° |
| 2026-04-15 10:38 | 50.04328 | 8.57122 | 363 ft | 24 kts | 249° |
| 2026-04-15 10:38 | 50.04277 | 8.56898 | 362 ft | 22 kts | 260° |
| 2026-04-15 10:39 | 50.04290 | 8.56824 | 363 ft | 4 kts | 319° |
| 2026-04-15 10:39 | 50.04324 | 8.56821 | 363 ft | 6 kts | 7° |
| 2026-04-15 10:39 | 50.04379 | 8.56838 | 360 ft | 10 kts | 11° |
| 2026-04-15 10:39 | 50.04464 | 8.56858 | 359 ft | 14 kts | 10° |
| 2026-04-15 10:40 | 50.04574 | 8.56896 | 360 ft | 18 kts | 12° |
| 2026-04-15 10:40 | 50.04708 | 8.56973 | 361 ft | 22 kts | 25° |
| 2026-04-15 10:40 | 50.04845 | 8.57071 | 358 ft | 19 kts | 24° |
| 2026-04-15 10:40 | 50.04879 | 8.57043 | 358 ft | 5 kts | 299° |
| 2026-04-15 10:41 | 50.04892 | 8.57005 | 359 ft | 2 kts | 296° |
| 2026-04-15 10:41 | 50.04894 | 8.56996 | 365 ft | 1 kts | 295° |